createdAt,value
2018-05-21T00:01:47.661Z,57.35
2018-05-21T00:04:15.726Z,57.38
2018-05-21T00:06:43.902Z,57.40
2018-05-21T00:09:11.763Z,57.41
2018-05-21T00:11:39.939Z,57.58
2018-05-21T00:14:08.089Z,57.76
2018-05-21T00:16:36.079Z,57.54
2018-05-21T00:19:04.152Z,57.17
2018-05-21T00:21:32.602Z,57.27
2018-05-21T00:24:00.712Z,57.28
2018-05-21T00:26:28.536Z,57.05
2018-05-21T00:28:56.797Z,56.90
2018-05-21T00:31:24.711Z,56.75
2018-05-21T00:33:52.546Z,56.85
2018-05-21T00:36:20.854Z,57.09
2018-05-21T00:38:48.670Z,57.20
2018-05-21T00:41:16.484Z,57.59
2018-05-21T00:43:44.562Z,57.82
2018-05-21T00:46:12.458Z,58.11
2018-05-21T00:48:40.555Z,58.28
2018-05-21T00:51:08.879Z,58.55
2018-05-21T00:53:36.720Z,58.55
2018-05-21T00:56:04.607Z,58.48
2018-05-21T00:58:32.682Z,58.60
2018-05-21T01:01:00.747Z,58.66
2018-05-21T01:03:28.601Z,58.76
2018-05-21T01:05:56.997Z,58.82
2018-05-21T01:08:25.067Z,58.78
2018-05-21T01:10:52.934Z,58.80
2018-05-21T01:13:20.900Z,58.66
2018-05-21T01:15:49.084Z,58.55
2018-05-21T01:18:17.115Z,58.40
2018-05-21T01:20:45.554Z,58.34
2018-05-21T01:23:13.646Z,58.26
2018-05-21T01:25:41.460Z,58.32
2018-05-21T01:28:09.532Z,58.56
2018-05-21T01:30:38.221Z,58.85
2018-05-21T01:33:06.079Z,58.86
2018-05-21T01:35:34.154Z,58.73
2018-05-21T01:38:02.223Z,58.40
2018-05-21T01:40:30.248Z,58.56
2018-05-21T01:42:58.574Z,58.72
2018-05-21T01:45:26.437Z,58.82
2018-05-21T01:47:54.615Z,58.74
2018-05-21T01:50:22.893Z,58.62
2018-05-21T01:52:50.756Z,58.82
2018-05-21T01:55:18.724Z,59.02
2018-05-21T01:57:46.793Z,58.88
2018-05-21T02:00:14.558Z,59.08
2018-05-21T02:02:42.633Z,59.33
2018-05-21T02:05:11.219Z,59.40
2018-05-21T02:07:39.185Z,59.34
2018-05-21T02:10:07.369Z,59.26
2018-05-21T02:12:35.866Z,58.95
2018-05-21T02:15:03.812Z,58.92
2018-05-21T02:17:31.680Z,58.91
2018-05-21T02:20:00.379Z,58.59
2018-05-21T02:22:28.233Z,58.28
2018-05-21T02:24:56.089Z,58.16
2018-05-21T02:27:24.300Z,57.88
2018-05-21T02:29:52.136Z,57.69
2018-05-21T02:32:19.945Z,57.50
2018-05-21T02:34:48.225Z,57.51
2018-05-21T02:37:16.041Z,57.65
2018-05-21T02:39:43.800Z,57.39
2018-05-21T02:42:12.433Z,57.12
2018-05-21T02:44:40.479Z,56.94
2018-05-21T02:47:08.330Z,56.77
2018-05-21T02:49:36.471Z,56.77
2018-05-21T02:52:10.658Z,56.57
2018-05-21T02:54:38.699Z,56.42
2018-05-21T02:57:06.725Z,56.58
2018-05-21T02:59:34.617Z,56.56
2018-05-21T03:02:02.675Z,56.22
2018-05-21T03:04:30.768Z,56.15
2018-05-21T03:06:58.658Z,56.02
2018-05-21T03:09:26.834Z,55.85
2018-05-21T03:11:54.898Z,55.56
2018-05-21T03:14:22.735Z,55.45
2018-05-21T03:16:50.660Z,55.27
2018-05-21T03:19:18.718Z,55.13
2018-05-21T03:21:46.643Z,54.99
2018-05-21T03:24:14.916Z,54.91
2018-05-21T03:26:44.015Z,54.89
2018-05-21T03:29:11.881Z,54.75
2018-05-21T03:31:40.257Z,54.63
2018-05-21T03:34:08.326Z,54.49
2018-05-21T03:36:36.187Z,54.46
2018-05-21T03:39:04.298Z,54.39
2018-05-21T03:41:32.444Z,54.48
2018-05-21T03:44:00.407Z,54.32
2018-05-21T03:46:28.535Z,54.16
2018-05-21T03:48:56.552Z,54.01
2018-05-21T03:51:24.414Z,53.82
2018-05-21T03:53:52.788Z,53.73
2018-05-21T03:56:20.996Z,53.72
2018-05-21T03:59:01.232Z,53.73
2018-05-21T04:01:40.970Z,53.80
2018-05-21T04:04:09.349Z,53.65
2018-05-21T04:06:37.214Z,53.59
2018-05-21T04:09:05.698Z,53.41
2018-05-21T04:11:33.886Z,53.17
2018-05-21T04:14:01.707Z,52.89
2018-05-21T04:16:30.424Z,52.84
2018-05-21T04:18:58.747Z,52.83
2018-05-21T04:21:26.624Z,52.65
2018-05-21T04:23:54.430Z,52.53
2018-05-21T04:26:22.808Z,52.30
2018-05-21T04:28:50.680Z,52.15
2018-05-21T04:31:18.547Z,51.80
2018-05-21T04:33:46.736Z,51.62
2018-05-21T04:36:14.587Z,51.41
2018-05-21T04:38:42.455Z,51.26
2018-05-21T04:41:10.657Z,50.78
2018-05-21T04:43:38.798Z,49.98
2018-05-21T04:46:06.530Z,50.43
2018-05-21T04:48:34.997Z,50.44
2018-05-21T04:51:03.011Z,50.24
2018-05-21T04:53:30.881Z,49.98
2018-05-21T04:55:59.958Z,49.76
2018-05-21T04:58:27.664Z,49.73
2018-05-21T05:00:55.498Z,49.92
2018-05-21T05:03:24.135Z,49.86
2018-05-21T05:05:51.996Z,49.93
2018-05-21T05:08:19.924Z,50.02
2018-05-21T05:10:48.320Z,50.07
2018-05-21T05:13:16.617Z,49.90
2018-05-21T05:15:44.446Z,49.96
2018-05-21T05:18:12.561Z,50.20
2018-05-21T05:20:40.476Z,50.31
2018-05-21T05:23:08.337Z,50.28
2018-05-21T05:25:36.653Z,50.26
2018-05-21T05:28:04.394Z,50.37
2018-05-21T05:30:32.256Z,50.32
2018-05-21T05:33:00.443Z,50.26
2018-05-21T05:35:28.819Z,50.58
2018-05-21T05:37:56.685Z,50.59
2018-05-21T05:40:24.945Z,50.50
2018-05-21T05:42:52.964Z,50.74
2018-05-21T05:45:20.654Z,50.91
2018-05-21T05:47:49.364Z,51.02
2018-05-21T05:50:17.639Z,51.36
2018-05-21T05:52:45.605Z,51.32
2018-05-21T05:55:13.783Z,51.46
2018-05-21T05:57:42.263Z,51.54
2018-05-21T06:00:10.130Z,51.54
2018-05-21T06:02:38.104Z,51.70
2018-05-21T06:05:06.167Z,51.81
2018-05-21T06:07:34.037Z,51.59
2018-05-21T06:10:02.077Z,51.49
2018-05-21T06:12:30.114Z,51.39
2018-05-21T06:14:57.940Z,51.35
2018-05-21T06:17:25.955Z,51.43
2018-05-21T06:19:54.088Z,51.44
2018-05-21T06:22:22.158Z,51.55
2018-05-21T06:24:50.535Z,51.32
2018-05-21T06:27:18.248Z,51.23
2018-05-21T06:29:46.298Z,51.24
2018-05-21T06:32:15.098Z,51.38
2018-05-21T06:34:42.934Z,51.32
2018-05-21T06:37:11.630Z,51.16
2018-05-21T06:39:39.516Z,51.08
2018-05-21T06:42:07.256Z,50.94
2018-05-21T06:44:35.340Z,50.85
2018-05-21T06:47:03.405Z,50.69
2018-05-21T06:49:31.349Z,50.75
2018-05-21T06:51:59.564Z,50.87
2018-05-21T06:54:28.063Z,50.77
2018-05-21T06:56:55.868Z,50.78
2018-05-21T06:59:23.939Z,50.77
2018-05-21T07:01:52.358Z,50.59
2018-05-21T07:04:20.186Z,50.93
2018-05-21T07:06:48.180Z,50.90
2018-05-21T07:09:16.421Z,50.84
2018-05-21T07:11:44.710Z,50.66
2018-05-21T07:14:12.501Z,50.52
2018-05-21T07:16:41.162Z,50.61
2018-05-21T07:19:09.261Z,50.63
2018-05-21T07:21:37.064Z,50.60
2018-05-21T07:24:05.169Z,50.82
2018-05-21T07:26:33.543Z,50.73
2018-05-21T07:29:01.507Z,50.56
2018-05-21T07:31:29.787Z,50.29
2018-05-21T07:33:57.866Z,50.36
2018-05-21T07:36:25.824Z,50.28
2018-05-21T07:38:53.990Z,49.42
2018-05-21T07:41:21.823Z,47.08
2018-05-21T07:43:50.348Z,45.14
2018-05-21T07:46:18.523Z,44.97
2018-05-21T07:48:46.341Z,44.66
2018-05-21T07:51:14.858Z,43.49
2018-05-21T07:53:43.377Z,42.30
2018-05-21T07:56:11.628Z,41.17
2018-05-21T07:58:40.002Z,39.96
2018-05-21T08:01:08.590Z,39.75
2018-05-21T08:03:36.628Z,38.05
2018-05-21T08:06:04.727Z,37.97
2018-05-21T08:08:32.949Z,37.99
2018-05-21T08:11:00.990Z,38.64
2018-05-21T08:13:28.960Z,39.08
2018-05-21T08:15:57.630Z,38.88
2018-05-21T08:18:25.595Z,38.66
2018-05-21T08:20:53.369Z,38.64
2018-05-21T08:23:21.748Z,39.56
2018-05-21T08:25:49.445Z,39.53
2018-05-21T08:28:17.158Z,39.52
2018-05-21T08:30:45.790Z,38.75
2018-05-21T08:33:13.535Z,38.37
2018-05-21T08:35:41.381Z,38.21
2018-05-21T08:38:09.642Z,37.66
2018-05-21T08:40:37.419Z,37.40
2018-05-21T08:43:05.282Z,37.04
2018-05-21T08:45:33.594Z,36.45
2018-05-21T08:48:01.516Z,35.52
2018-05-21T08:50:29.395Z,35.35
2018-05-21T08:52:57.671Z,35.43
2018-05-21T08:55:25.912Z,34.42
2018-05-21T08:57:53.742Z,33.57
2018-05-21T09:00:22.403Z,33.15
2018-05-21T09:02:51.163Z,32.51
2018-05-21T09:05:19.032Z,32.55
2018-05-21T09:07:46.985Z,32.53
2018-05-21T09:10:14.981Z,32.30
2018-05-21T09:12:42.904Z,31.25
2018-05-21T09:15:10.883Z,30.47
2018-05-21T09:17:39.104Z,29.50
2018-05-21T09:20:07.360Z,29.19
2018-05-21T09:22:35.425Z,29.09
2018-05-21T09:25:03.289Z,27.82
2018-05-21T09:27:31.411Z,26.69
2018-05-21T09:29:59.294Z,25.66
2018-05-21T09:32:27.180Z,25.35
2018-05-21T09:34:55.189Z,24.95
2018-05-21T09:37:23.321Z,24.79
2018-05-21T09:39:51.027Z,24.70
2018-05-21T09:42:18.993Z,24.98
2018-05-21T09:44:46.882Z,24.97
2018-05-21T09:47:15.039Z,24.09
2018-05-21T09:49:43.057Z,23.65
2018-05-21T09:52:11.106Z,23.19
2018-05-21T09:54:38.831Z,23.11
2018-05-21T09:57:07.200Z,23.23
2018-05-21T09:59:35.287Z,23.33
2018-05-21T10:02:03.067Z,23.19
2018-05-21T10:04:31.976Z,22.74
2018-05-21T10:07:00.010Z,22.91
2018-05-21T10:09:27.889Z,22.76
2018-05-21T10:11:56.187Z,22.43
2018-05-21T10:14:24.259Z,22.30
2018-05-21T10:16:52.200Z,22.23
2018-05-21T10:19:20.311Z,22.46
2018-05-21T10:21:48.538Z,22.37
2018-05-21T10:24:16.727Z,22.10
2018-05-21T10:26:44.475Z,22.28
2018-05-21T10:29:12.418Z,22.18
2018-05-21T10:31:40.613Z,21.84
2018-05-21T10:34:08.334Z,21.69
2018-05-21T10:36:36.435Z,21.91
2018-05-21T10:39:04.681Z,22.00
2018-05-21T10:41:32.772Z,21.88
2018-05-21T10:44:00.692Z,21.77
2018-05-21T10:46:28.407Z,21.74
2018-05-21T10:48:56.430Z,21.41
2018-05-21T10:51:24.556Z,21.91
2018-05-21T10:53:52.270Z,21.78
2018-05-21T10:56:20.453Z,21.65
2018-05-21T10:58:48.325Z,21.52
2018-05-21T11:01:16.148Z,21.69
2018-05-21T11:03:44.219Z,22.24
2018-05-21T11:06:12.409Z,22.93
2018-05-21T11:08:40.146Z,23.74
2018-05-21T11:11:07.988Z,23.79
2018-05-21T11:13:36.239Z,22.83
2018-05-21T11:16:04.161Z,23.72
2018-05-21T11:18:31.916Z,24.37
2018-05-21T11:21:00.460Z,25.88
2018-05-21T11:23:28.163Z,26.60
2018-05-21T11:25:55.899Z,26.77
2018-05-21T11:28:24.155Z,26.86
2018-05-21T11:30:51.955Z,27.24
2018-05-21T11:33:19.789Z,27.28
2018-05-21T11:35:48.384Z,27.71
2018-05-21T11:38:16.247Z,27.46
2018-05-21T11:40:44.018Z,27.34
2018-05-21T11:43:12.116Z,27.74
2018-05-21T11:45:39.857Z,27.85
2018-05-21T11:48:07.633Z,26.98
2018-05-21T11:50:35.896Z,26.76
2018-05-21T11:53:04.004Z,26.79
2018-05-21T11:55:31.752Z,26.90
2018-05-21T11:58:00.040Z,26.58
2018-05-21T12:00:28.187Z,26.99
2018-05-21T12:02:55.923Z,27.17
2018-05-21T12:05:23.727Z,27.06
2018-05-21T12:07:51.955Z,27.24
2018-05-21T12:10:19.885Z,27.03
2018-05-21T12:12:47.787Z,26.87
2018-05-21T12:15:15.695Z,27.16
2018-05-21T12:17:43.654Z,27.20
2018-05-21T12:20:11.590Z,27.31
2018-05-21T12:22:39.674Z,27.72
2018-05-21T12:25:07.524Z,27.89
2018-05-21T12:27:36.794Z,28.16
2018-05-21T12:30:05.787Z,28.21
2018-05-21T12:32:33.897Z,28.50
2018-05-21T12:35:01.629Z,28.29
2018-05-21T12:37:30.035Z,28.35
2018-05-21T12:39:58.158Z,28.87
2018-05-21T12:42:25.850Z,29.11
2018-05-21T12:44:53.685Z,29.52
2018-05-21T12:47:21.859Z,29.54
2018-05-21T12:49:49.753Z,29.51
2018-05-21T12:52:17.911Z,29.71
2018-05-21T12:54:46.108Z,29.89
2018-05-21T12:57:13.952Z,29.92
2018-05-21T12:59:42.228Z,30.05
2018-05-21T13:02:10.229Z,30.19
2018-05-21T13:04:37.966Z,30.25
2018-05-21T13:07:06.105Z,30.36
2018-05-21T13:09:34.659Z,30.29
2018-05-21T13:12:02.486Z,30.07
2018-05-21T13:14:30.410Z,30.11
2018-05-21T13:16:58.523Z,30.67
2018-05-21T13:19:26.254Z,30.91
2018-05-21T13:21:54.358Z,31.23
2018-05-21T13:24:22.845Z,31.51
2018-05-21T13:26:50.806Z,31.59
2018-05-21T13:29:18.734Z,31.48
2018-05-21T13:31:46.843Z,31.30
2018-05-21T13:34:14.641Z,31.33
2018-05-21T13:36:42.680Z,31.41
2018-05-21T13:39:10.653Z,31.18
2018-05-21T13:41:38.363Z,31.10
2018-05-21T13:44:06.772Z,31.12
2018-05-21T13:46:35.091Z,31.55
2018-05-21T13:49:02.957Z,31.69
2018-05-21T13:51:31.471Z,31.54
2018-05-21T13:53:59.204Z,31.44
2018-05-21T13:56:27.148Z,31.40
2018-05-21T13:58:55.494Z,31.11
2018-05-21T14:01:23.283Z,31.00
2018-05-21T14:03:50.980Z,31.01
2018-05-21T14:06:19.284Z,30.92
2018-05-21T14:08:47.037Z,30.69
2018-05-21T14:11:15.081Z,30.61
2018-05-21T14:13:43.245Z,31.10
2018-05-21T14:16:11.102Z,31.42
2018-05-21T14:18:38.969Z,31.59
2018-05-21T14:21:07.352Z,31.66
2018-05-21T14:23:35.215Z,31.50
2018-05-21T14:26:02.980Z,31.22
2018-05-21T14:28:31.385Z,30.92
2018-05-21T14:31:00.708Z,30.43
2018-05-21T14:33:28.539Z,29.59
2018-05-21T14:35:56.781Z,29.35
2018-05-21T14:38:24.507Z,29.19
2018-05-21T14:40:52.639Z,29.26
2018-05-21T14:43:21.040Z,29.32
2018-05-21T14:45:48.808Z,29.35
2018-05-21T14:48:17.044Z,28.83
2018-05-21T14:50:45.728Z,29.12
2018-05-21T14:53:13.625Z,29.00
2018-05-21T14:55:41.444Z,29.49
2018-05-21T14:58:09.545Z,29.42
2018-05-21T15:00:37.623Z,29.42
2018-05-21T15:03:05.600Z,29.32
2018-05-21T15:05:33.706Z,29.48
2018-05-21T15:08:01.664Z,29.51
2018-05-21T15:10:29.709Z,29.76
2018-05-21T15:12:58.281Z,29.81
2018-05-21T15:15:26.463Z,30.00
2018-05-21T15:17:54.319Z,29.93
2018-05-21T15:20:22.492Z,29.83
2018-05-21T15:22:50.770Z,29.67
2018-05-21T15:25:19.036Z,29.86
2018-05-21T15:27:47.294Z,29.97
2018-05-21T15:30:15.027Z,29.99
2018-05-21T15:32:43.074Z,30.07
2018-05-21T15:35:11.130Z,30.30
2018-05-21T15:37:38.967Z,30.14
2018-05-21T15:40:07.022Z,30.09
2018-05-21T15:42:35.194Z,29.94
2018-05-21T15:45:03.891Z,29.99
2018-05-21T15:47:31.906Z,30.30
2018-05-21T15:50:00.069Z,30.40
2018-05-21T15:52:27.862Z,30.31
2018-05-21T15:54:55.950Z,30.24
2018-05-21T15:57:24.178Z,30.13
2018-05-21T15:59:52.045Z,30.22
2018-05-21T16:02:20.330Z,30.21
2018-05-21T16:04:48.625Z,30.21
2018-05-21T16:07:16.469Z,30.27
2018-05-21T16:09:44.962Z,30.56
2018-05-21T16:12:13.184Z,31.03
2018-05-21T16:14:41.185Z,31.58
2018-05-21T16:17:09.275Z,31.91
2018-05-21T16:19:37.739Z,32.15
2018-05-21T16:22:05.808Z,32.37
2018-05-21T16:24:33.981Z,32.23
2018-05-21T16:27:02.956Z,32.08
2018-05-21T16:29:30.941Z,32.18
2018-05-21T16:31:59.119Z,32.14
2018-05-21T16:34:27.079Z,32.30
2018-05-21T16:36:55.092Z,32.62
2018-05-21T16:39:23.343Z,32.81
2018-05-21T16:41:51.656Z,32.85
2018-05-21T16:44:19.540Z,33.14
2018-05-21T16:46:52.924Z,33.17
2018-05-21T16:49:21.394Z,33.37
2018-05-21T16:51:49.283Z,33.73
2018-05-21T16:54:17.491Z,33.51
2018-05-21T16:56:45.663Z,33.55
2018-05-21T16:59:13.646Z,33.45
2018-05-21T17:01:44.266Z,33.58
2018-05-21T17:04:12.146Z,33.43
2018-05-21T17:06:39.940Z,33.07
2018-05-21T17:09:08.353Z,33.27
2018-05-21T17:11:36.241Z,33.42
2018-05-21T17:14:04.186Z,33.29
2018-05-21T17:16:32.648Z,33.15
2018-05-21T17:19:00.663Z,32.89
2018-05-21T17:21:28.390Z,32.86
2018-05-21T17:23:56.822Z,32.87
2018-05-21T17:26:24.901Z,32.86
2018-05-21T17:28:52.639Z,32.90
2018-05-21T17:31:20.757Z,32.85
2018-05-21T17:33:48.892Z,32.70
2018-05-21T17:36:16.892Z,32.66
2018-05-21T17:38:44.854Z,32.44
2018-05-21T17:41:13.054Z,32.46
2018-05-21T17:43:40.969Z,32.54
2018-05-21T17:46:08.814Z,32.41
2018-05-21T17:48:37.006Z,32.48
2018-05-21T17:51:05.124Z,32.66
2018-05-21T17:53:33.256Z,32.91
2018-05-21T17:56:01.280Z,33.00
2018-05-21T17:58:29.163Z,33.04
2018-05-21T18:00:57.126Z,33.21
2018-05-21T18:03:25.121Z,33.32
2018-05-21T18:05:52.942Z,33.39
2018-05-21T18:08:21.992Z,33.41
2018-05-21T18:10:50.057Z,33.15
2018-05-21T18:13:17.932Z,32.99
2018-05-21T18:15:45.989Z,32.92
2018-05-21T18:18:14.123Z,33.07
2018-05-21T18:20:42.279Z,33.10
2018-05-21T18:23:10.457Z,33.15
2018-05-21T18:25:38.658Z,33.24
2018-05-21T18:28:06.560Z,33.39
2018-05-21T18:30:34.623Z,33.53
2018-05-21T18:33:02.803Z,33.66
2018-05-21T18:35:30.617Z,33.74
2018-05-21T18:37:58.627Z,33.85
2018-05-21T18:40:26.519Z,33.93
2018-05-21T18:42:54.284Z,34.18
2018-05-21T18:45:23.046Z,34.56
2018-05-21T18:47:51.260Z,35.33
2018-05-21T18:50:18.996Z,36.05
2018-05-21T18:52:47.058Z,36.29
2018-05-21T18:55:15.151Z,36.54
2018-05-21T18:57:43.045Z,36.50
2018-05-21T19:00:11.286Z,36.63
2018-05-21T19:02:39.545Z,36.68
2018-05-21T19:05:07.825Z,36.65
2018-05-21T19:07:35.997Z,36.71
2018-05-21T19:10:04.067Z,36.46
2018-05-21T19:12:31.912Z,36.35
2018-05-21T19:15:00.212Z,36.43
2018-05-21T19:17:28.280Z,36.54
2018-05-21T19:19:56.556Z,36.48
2018-05-21T19:22:24.701Z,36.51
2018-05-21T19:24:52.521Z,36.68
2018-05-21T19:27:20.260Z,36.86
2018-05-21T19:29:49.259Z,37.17
2018-05-21T19:32:17.391Z,37.38
2018-05-21T19:34:45.258Z,37.54
2018-05-21T19:37:13.375Z,37.51
2018-05-21T19:39:41.439Z,37.50
2018-05-21T19:42:09.306Z,37.49
2018-05-21T19:44:37.375Z,37.47
2018-05-21T19:47:05.544Z,37.46
2018-05-21T19:49:34.458Z,37.55
2018-05-21T19:52:02.554Z,37.60
2018-05-21T19:58:01.323Z,37.82
2018-05-21T20:00:29.696Z,37.89
2018-05-21T20:02:57.874Z,38.01
2018-05-21T20:05:26.045Z,38.10
2018-05-21T20:07:54.194Z,38.17
2018-05-21T20:10:23.019Z,38.21
2018-05-21T20:12:50.942Z,38.21
2018-05-21T20:15:19.055Z,38.22
2018-05-21T20:17:46.910Z,38.33
2018-05-21T20:20:15.192Z,38.45
2018-05-21T20:22:43.479Z,38.46
2018-05-21T20:25:11.361Z,38.57
2018-05-21T20:27:39.617Z,38.62
2018-05-21T20:30:07.619Z,38.72
2018-05-21T20:32:35.503Z,38.91
2018-05-21T20:35:03.614Z,39.04
2018-05-21T20:37:32.101Z,39.27
2018-05-21T20:40:00.088Z,39.33
2018-05-21T20:42:28.346Z,39.40
2018-05-21T20:44:56.594Z,39.43
2018-05-21T20:47:24.480Z,39.40
2018-05-21T20:49:52.861Z,39.44
2018-05-21T20:52:21.235Z,39.39
2018-05-21T20:54:50.129Z,39.23
2018-05-21T20:57:18.301Z,39.25
2018-05-21T20:59:46.254Z,39.21
2018-05-21T21:02:14.379Z,39.25
2018-05-21T21:04:42.458Z,39.25
2018-05-21T21:07:10.277Z,39.31
2018-05-21T21:09:38.657Z,39.38
2018-05-21T21:12:06.831Z,39.45
2018-05-21T21:14:34.801Z,39.68
2018-05-21T21:17:03.115Z,39.89
2018-05-21T21:19:31.459Z,40.29
2018-05-21T21:21:59.731Z,40.61
2018-05-21T21:24:27.903Z,40.92
2018-05-21T21:26:56.180Z,41.05
2018-05-21T21:29:24.048Z,41.27
2018-05-21T21:31:52.148Z,41.37
2018-05-21T21:34:20.431Z,41.39
2018-05-21T21:36:48.260Z,41.48
2018-05-21T21:39:16.126Z,41.53
2018-05-21T21:41:44.425Z,41.54
2018-05-21T21:44:12.218Z,41.54
2018-05-21T21:46:40.237Z,41.54
2018-05-21T21:49:08.821Z,41.55
2018-05-21T21:51:37.021Z,41.63
2018-05-21T21:54:04.867Z,41.65
2018-05-21T21:56:33.244Z,41.72
2018-05-21T21:59:01.230Z,41.74
2018-05-21T22:01:29.178Z,41.74
2018-05-21T22:03:57.503Z,41.76
2018-05-21T22:06:25.321Z,41.81
2018-05-21T22:08:53.198Z,41.88
2018-05-21T22:11:21.687Z,41.83
2018-05-21T22:13:49.410Z,41.82
2018-05-21T22:16:17.197Z,41.89
2018-05-21T22:18:45.334Z,41.93
2018-05-21T22:21:13.142Z,41.99
2018-05-21T22:23:41.204Z,42.08
2018-05-21T22:26:09.793Z,42.15
2018-05-21T22:28:37.550Z,42.25
2018-05-21T22:31:05.422Z,42.18
2018-05-21T22:33:33.807Z,42.16
2018-05-21T22:36:01.635Z,42.08
2018-05-21T22:38:29.534Z,42.09
2018-05-21T22:40:58.322Z,42.18
2018-05-21T22:43:26.159Z,42.28
2018-05-21T22:45:54.048Z,42.44
2018-05-21T22:48:22.257Z,42.57
2018-05-21T22:50:50.148Z,42.72
2018-05-21T22:53:17.976Z,42.80
2018-05-21T22:55:46.471Z,42.85
2018-05-21T22:58:14.277Z,42.94
2018-05-21T23:00:42.372Z,43.01
2018-05-21T23:03:10.731Z,43.01
2018-05-21T23:05:38.515Z,42.99
2018-05-21T23:08:06.381Z,42.96
2018-05-21T23:10:34.657Z,42.79
2018-05-21T23:13:02.456Z,42.73
2018-05-21T23:15:30.494Z,42.75
2018-05-21T23:17:59.002Z,42.77
2018-05-21T23:20:26.941Z,42.83
2018-05-21T23:22:55.219Z,42.98
2018-05-21T23:25:23.702Z,43.09
2018-05-21T23:27:51.545Z,43.19
2018-05-21T23:30:19.534Z,43.23
2018-05-21T23:32:47.765Z,43.39
2018-05-21T23:35:15.675Z,43.33
2018-05-21T23:37:43.647Z,43.32
2018-05-21T23:40:12.013Z,43.28
2018-05-21T23:42:39.814Z,43.26
2018-05-21T23:45:08.004Z,43.21
2018-05-21T23:47:36.033Z,43.26
2018-05-21T23:50:03.902Z,43.33
2018-05-21T23:52:31.975Z,43.43
2018-05-21T23:55:00.246Z,43.76
2018-05-21T23:57:28.178Z,44.05
2018-05-21T23:59:56.087Z,44.38
